Time;durP1;ratioP1;P1;durP2;ratioP2;P2;SDS_P1;SDS_P2;PMS_P1;PMS_P2;Temp;Humidity;BMP_temperature;BMP_pressure;BME280_temperature;BME280_humidity;BME280_pressure;Samples;Min_cycle;Max_cycle;Signal;HPM_P1;HPM_P2
2021/07/01 00:02:03;;;;;;;5.23;3.87;;;21.20;99.90;;;;;;4394460;32;20180;-71
2021/07/01 00:04:30;;;;;;;6.13;4.13;;;21.00;99.90;;;;;;4394862;32;20148;-71
2021/07/01 00:06:57;;;;;;;4.73;3.77;;;20.90;99.90;;;;;;4394847;32;20411;-70
2021/07/01 00:09:25;;;;;;;5.63;4.13;;;20.80;99.90;;;;;;4394845;32;20170;-71
2021/07/01 00:11:55;;;;;;;4.17;3.77;;;20.80;99.90;;;;;;4396239;32;20143;-70
2021/07/01 00:14:23;;;;;;;4.73;3.80;;;20.80;99.90;;;;;;4396380;32;20163;-70
2021/07/01 00:16:52;;;;;;;5.17;3.97;;;20.80;99.90;;;;;;4396712;32;20185;-70
2021/07/01 00:19:21;;;;;;;4.67;4.13;;;20.80;99.90;;;;;;4403339;32;20159;-71
2021/07/01 00:21:48;;;;;;;5.80;4.13;;;20.80;99.90;;;;;;4409704;32;20396;-70
2021/07/01 00:24:15;;;;;;;5.20;4.00;;;20.70;99.90;;;;;;4411980;32;20170;-70
2021/07/01 00:26:42;;;;;;;5.90;4.10;;;20.70;99.90;;;;;;4409905;32;20188;-70
2021/07/01 00:29:09;;;;;;;6.07;4.20;;;20.70;99.90;;;;;;4411271;32;20140;-71
2021/07/01 00:31:36;;;;;;;6.13;4.07;;;20.70;99.90;;;;;;4408915;32;20144;-71
2021/07/01 00:34:03;;;;;;;5.43;4.10;;;20.70;99.90;;;;;;4409555;32;20469;-70
2021/07/01 00:36:30;;;;;;;6.43;4.07;;;20.70;99.90;;;;;;4409774;32;20165;-71
2021/07/01 00:38:58;;;;;;;5.63;4.97;;;20.60;99.90;;;;;;4409495;32;20166;-71
2021/07/01 00:41:25;;;;;;;6.63;4.30;;;20.50;99.90;;;;;;4409585;32;20231;-70
2021/07/01 00:43:52;;;;;;;5.20;4.30;;;20.50;99.90;;;;;;4409550;32;20147;-70
2021/07/01 00:46:19;;;;;;;6.20;4.40;;;20.40;99.90;;;;;;4408956;32;20154;-70
2021/07/01 00:48:46;;;;;;;4.40;4.00;;;20.40;99.90;;;;;;4409595;32;20151;-70
2021/07/01 00:51:13;;;;;;;5.30;4.77;;;20.30;99.90;;;;;;4409739;32;20203;-70
2021/07/01 00:53:40;;;;;;;4.87;4.33;;;20.30;99.90;;;;;;4409506;32;20170;-70
2021/07/01 00:56:09;;;;;;;6.73;4.87;;;20.30;99.90;;;;;;4410997;32;20407;-70
2021/07/01 00:58:37;;;;;;;6.60;4.93;;;20.20;99.90;;;;;;4409408;32;20155;-71
2021/07/01 01:01:05;;;;;;;5.53;4.40;;;20.20;99.90;;;;;;4410488;32;20226;-71
2021/07/01 01:03:35;;;;;;;5.17;4.67;;;20.10;99.90;;;;;;4409349;32;20193;-71
2021/07/01 01:06:03;;;;;;;6.40;4.53;;;20.10;99.90;;;;;;4409382;32;20159;-71
2021/07/01 01:08:31;;;;;;;8.40;5.20;;;20.10;99.90;;;;;;4410094;32;20383;-70
2021/07/01 01:10:58;;;;;;;5.37;4.37;;;20.00;99.90;;;;;;4409396;32;20148;-70
2021/07/01 01:13:26;;;;;;;8.53;5.07;;;20.00;99.90;;;;;;4410191;32;20148;-70
2021/07/01 01:15:55;;;;;;;6.17;5.57;;;20.00;99.90;;;;;;4409850;32;20134;-70
2021/07/01 01:18:23;;;;;;;5.63;4.83;;;19.90;99.90;;;;;;4409084;32;20167;-69
2021/07/01 01:20:52;;;;;;;8.20;5.10;;;19.90;99.90;;;;;;4409155;32;20174;-69
2021/07/01 01:23:19;;;;;;;6.93;5.17;;;19.80;99.90;;;;;;4410577;32;20175;-69
2021/07/01 01:25:51;;;;;;;7.70;5.00;;;19.80;99.90;;;;;;4410487;32;20151;-70
2021/07/01 01:28:18;;;;;;;7.63;5.00;;;19.80;99.90;;;;;;4409402;32;20143;-70
2021/07/01 01:30:46;;;;;;;6.93;4.90;;;19.80;99.90;;;;;;4410561;32;20349;-69
2021/07/01 01:33:13;;;;;;;7.30;4.93;;;19.70;99.90;;;;;;4409656;32;20516;-70
2021/07/01 01:35:41;;;;;;;7.47;5.37;;;19.70;99.90;;;;;;4410473;32;20215;-69
2021/07/01 01:38:11;;;;;;;6.13;5.00;;;19.70;99.90;;;;;;4408883;32;20177;-70
2021/07/01 01:40:39;;;;;;;8.43;5.27;;;19.70;99.90;;;;;;4408993;32;20135;-69
2021/07/01 01:43:06;;;;;;;6.17;5.47;;;19.70;99.90;;;;;;4408961;32;20215;-70
2021/07/01 01:45:37;;;;;;;6.10;5.00;;;19.70;99.90;;;;;;4408823;32;20170;-70
2021/07/01 01:48:04;;;;;;;6.90;5.27;;;19.60;99.90;;;;;;4410475;32;20196;-70
2021/07/01 01:50:32;;;;;;;7.87;5.50;;;19.60;99.90;;;;;;4408877;32;20174;-69
2021/07/01 01:52:59;;;;;;;7.73;5.60;;;19.60;99.90;;;;;;4410326;32;20192;-69
2021/07/01 01:55:27;;;;;;;6.80;4.83;;;19.60;99.90;;;;;;4410330;32;20158;-70
2021/07/01 01:57:54;;;;;;;7.27;5.37;;;19.60;99.90;;;;;;4408659;32;20185;-69
2021/07/01 02:00:26;;;;;;;8.20;5.27;;;19.50;99.90;;;;;;4410542;32;20438;-69
2021/07/01 02:02:53;;;;;;;13.90;5.87;;;19.50;99.90;;;;;;4408183;32;20151;-69
2021/07/01 02:05:21;;;;;;;6.57;4.83;;;19.50;99.90;;;;;;4408816;32;20151;-69
2021/07/01 02:07:48;;;;;;;7.10;5.20;;;19.50;99.90;;;;;;4408869;32;20193;-69
2021/07/01 02:10:26;;;;;;;6.27;4.80;;;19.50;99.90;;;;;;4408796;32;20524;-69
2021/07/01 02:12:54;;;;;;;5.63;4.80;;;19.50;99.90;;;;;;4410227;32;20182;-70
2021/07/01 02:15:23;;;;;;;6.50;4.93;;;19.50;99.90;;;;;;4410065;32;20191;-69
2021/07/01 02:17:51;;;;;;;6.73;4.97;;;19.50;99.90;;;;;;4408212;32;20167;-70
2021/07/01 02:20:20;;;;;;;5.97;5.23;;;19.40;99.90;;;;;;4409968;32;20199;-69
2021/07/01 02:22:47;;;;;;;6.57;4.93;;;19.30;99.90;;;;;;4408837;32;20140;-69
2021/07/01 02:25:14;;;;;;;7.50;4.90;;;19.30;99.90;;;;;;4408530;32;20225;-70
2021/07/01 02:27:43;;;;;;;6.23;5.40;;;19.30;99.90;;;;;;4408530;32;20170;-69
2021/07/01 02:30:12;;;;;;;8.07;5.20;;;19.30;99.90;;;;;;4408536;32;20135;-69
2021/07/01 02:32:39;;;;;;;6.40;5.00;;;19.30;99.90;;;;;;4404057;32;20164;-69
2021/07/01 02:35:26;;;;;;;7.87;5.70;;;19.30;99.90;;;;;;4394656;32;20195;-69
2021/07/01 02:37:53;;;;;;;7.33;5.50;;;19.20;99.90;;;;;;4393274;32;20140;-70
2021/07/01 02:40:20;;;;;;;7.83;5.50;;;19.20;99.90;;;;;;4400359;32;20167;-69
2021/07/01 02:42:47;;;;;;;7.27;5.73;;;19.20;99.90;;;;;;4395577;32;20167;-69
2021/07/01 02:45:14;;;;;;;8.43;6.10;;;19.30;99.90;;;;;;4396168;32;20144;-69
2021/07/01 02:47:41;;;;;;;8.87;6.60;;;19.20;99.90;;;;;;4396103;32;20155;-69
2021/07/01 02:50:09;;;;;;;6.73;5.70;;;19.30;99.90;;;;;;4396175;32;20148;-69
2021/07/01 02:52:37;;;;;;;8.87;6.93;;;19.20;99.90;;;;;;4397547;32;20190;-69
2021/07/01 02:55:06;;;;;;;10.00;7.10;;;19.20;99.90;;;;;;4396113;32;20159;-69
2021/07/01 02:57:33;;;;;;;10.13;7.60;;;19.00;99.90;;;;;;4396019;32;20140;-70
2021/07/01 03:00:01;;;;;;;13.90;7.90;;;19.00;99.90;;;;;;4395961;32;20151;-70
2021/07/01 03:02:28;;;;;;;11.10;8.20;;;19.10;99.90;;;;;;4397400;32;20145;-70
2021/07/01 03:04:55;;;;;;;9.70;8.70;;;19.10;99.90;;;;;;4397349;32;20143;-70
2021/07/01 03:07:21;;;;;;;9.63;7.97;;;19.20;99.90;;;;;;4396293;32;20166;-69
2021/07/01 03:09:48;;;;;;;12.77;8.40;;;19.20;99.90;;;;;;4395463;32;20377;-69
2021/07/01 03:12:15;;;;;;;10.97;8.10;;;19.10;99.90;;;;;;4397287;32;20425;-69
2021/07/01 03:14:42;;;;;;;12.47;8.20;;;19.00;99.90;;;;;;4397296;32;20167;-69
2021/07/01 03:17:09;;;;;;;12.17;8.17;;;19.00;99.90;;;;;;4395721;32;20202;-69
2021/07/01 03:19:36;;;;;;;12.23;8.73;;;19.10;99.90;;;;;;4395676;32;20183;-70
2021/07/01 03:22:03;;;;;;;14.60;8.80;;;19.10;99.90;;;;;;4397440;32;20197;-70
2021/07/01 03:24:30;;;;;;;12.23;8.70;;;19.00;99.90;;;;;;4395030;32;20374;-70
2021/07/01 03:27:00;;;;;;;12.93;8.70;;;18.90;99.90;;;;;;4395097;32;20213;-70
2021/07/01 03:29:27;;;;;;;14.57;8.73;;;18.90;99.90;;;;;;4396503;32;20431;-71
2021/07/01 03:31:54;;;;;;;9.70;7.93;;;19.00;99.90;;;;;;4397076;32;20197;-70
2021/07/01 03:34:21;;;;;;;10.87;8.20;;;19.00;99.90;;;;;;4395560;32;20182;-70
2021/07/01 03:36:49;;;;;;;9.10;7.70;;;19.10;99.90;;;;;;4397050;32;20485;-70
2021/07/01 03:39:16;;;;;;;10.43;7.10;;;19.10;99.90;;;;;;4395118;32;20156;-70
2021/07/01 03:41:43;;;;;;;8.37;6.73;;;19.10;99.90;;;;;;4397029;32;20469;-71
2021/07/01 03:44:11;;;;;;;10.00;7.30;;;19.20;99.90;;;;;;4395372;32;20196;-70
2021/07/01 03:46:38;;;;;;;10.13;7.13;;;19.30;99.90;;;;;;4395866;32;20135;-69
2021/07/01 03:49:05;;;;;;;11.73;6.67;;;19.30;99.90;;;;;;4395331;32;20265;-70
2021/07/01 03:51:32;;;;;;;8.63;6.00;;;19.30;99.90;;;;;;4397494;32;20182;-69
2021/07/01 03:53:59;;;;;;;9.07;6.67;;;19.30;99.90;;;;;;4400325;32;20208;-71
2021/07/01 03:56:26;;;;;;;9.27;6.00;;;19.40;99.90;;;;;;4394669;32;20671;-71
2021/07/01 03:58:53;;;;;;;8.87;5.60;;;19.40;99.90;;;;;;4403410;32;20203;-69
2021/07/01 04:01:19;;;;;;;6.83;5.13;;;19.50;99.90;;;;;;4395208;32;20166;-69
2021/07/01 04:03:46;;;;;;;6.90;5.40;;;19.50;99.90;;;;;;4395169;32;20202;-69
2021/07/01 04:06:13;;;;;;;5.13;4.63;;;19.70;99.90;;;;;;4395115;32;20147;-70
2021/07/01 04:08:40;;;;;;;9.13;5.60;;;19.70;99.90;;;;;;4396539;32;20144;-69
2021/07/01 04:11:10;;;;;;;5.87;4.97;;;19.80;99.90;;;;;;4396443;32;20167;-69
2021/07/01 04:13:36;;;;;;;6.20;4.07;;;19.80;99.90;;;;;;4394978;32;20178;-68
2021/07/01 04:16:04;;;;;;;7.20;4.73;;;19.90;99.90;;;;;;4394974;32;20163;-68
2021/07/01 04:18:30;;;;;;;8.57;4.60;;;19.90;99.90;;;;;;4395221;32;20182;-69
2021/07/01 04:20:57;;;;;;;6.17;4.63;;;19.90;99.90;;;;;;4394885;32;20203;-69
2021/07/01 04:23:24;;;;;;;6.00;4.80;;;20.00;99.90;;;;;;4394872;32;20445;-69
2021/07/01 04:25:52;;;;;;;6.90;5.20;;;20.00;99.90;;;;;;4394576;32;20163;-69
2021/07/01 04:28:18;;;;;;;6.70;4.90;;;20.00;99.90;;;;;;4395130;32;20148;-69
2021/07/01 04:30:45;;;;;;;7.07;5.63;;;20.00;99.90;;;;;;4395974;32;20186;-68
2021/07/01 04:33:12;;;;;;;11.97;7.53;;;20.20;99.90;;;;;;4394624;32;20410;-69
2021/07/01 04:35:39;;;;;;;9.77;7.70;;;20.30;99.90;;;;;;4394649;32;20151;-69
2021/07/01 04:38:06;;;;;;;11.20;8.17;;;20.30;99.90;;;;;;4393887;32;20289;-70
2021/07/01 04:40:33;;;;;;;12.23;8.13;;;20.20;99.90;;;;;;4394306;32;20156;-68
2021/07/01 04:43:00;;;;;;;11.83;8.70;;;20.20;99.90;;;;;;4394998;32;20196;-69
2021/07/01 04:45:27;;;;;;;11.57;8.30;;;20.10;99.90;;;;;;4395282;32;20206;-68
2021/07/01 04:47:54;;;;;;;9.90;7.60;;;20.10;99.90;;;;;;4396129;32;20541;-69
2021/07/01 04:50:21;;;;;;;13.23;7.80;;;20.20;99.90;;;;;;4394524;32;20193;-70
2021/07/01 04:52:48;;;;;;;13.43;7.90;;;20.20;99.90;;;;;;4394347;32;20143;-68
2021/07/01 04:55:14;;;;;;;10.87;7.60;;;20.40;99.90;;;;;;4394999;32;20199;-69
2021/07/01 04:57:41;;;;;;;10.23;8.30;;;20.40;99.90;;;;;;4394914;32;20417;-69
2021/07/01 05:00:09;;;;;;;10.87;8.13;;;20.40;99.90;;;;;;4395315;32;20167;-69
2021/07/01 05:02:36;;;;;;;9.70;6.93;;;20.50;99.90;;;;;;4394634;32;20476;-68
2021/07/01 05:05:03;;;;;;;11.00;7.30;;;20.50;99.90;;;;;;4394012;32;20162;-69
2021/07/01 05:07:30;;;;;;;10.10;7.13;;;20.50;99.90;;;;;;4393959;32;20420;-69
2021/07/01 05:09:58;;;;;;;8.47;6.03;;;20.70;99.90;;;;;;4395495;32;20139;-69
2021/07/01 05:12:25;;;;;;;8.13;5.13;;;20.70;99.90;;;;;;4395543;32;20151;-69
2021/07/01 05:14:52;;;;;;;5.17;4.23;;;20.70;99.90;;;;;;4394152;32;20174;-68
2021/07/01 05:17:19;;;;;;;5.50;3.90;;;20.90;99.90;;;;;;4394254;32;20148;-73
2021/07/01 05:19:45;;;;;;;6.83;3.70;;;20.90;99.90;;;;;;4393800;32;20159;-74
2021/07/01 05:22:12;;;;;;;5.60;3.60;;;20.80;99.90;;;;;;4393967;32;20155;-73
2021/07/01 05:24:39;;;;;;;9.60;3.90;;;20.90;99.90;;;;;;4393955;32;20196;-64
2021/07/01 05:27:06;;;;;;;4.37;3.30;;;21.00;99.90;;;;;;4394933;32;20359;-63
2021/07/01 05:29:33;;;;;;;5.13;3.00;;;20.90;99.90;;;;;;4402249;32;20152;-63
2021/07/01 05:32:20;;;;;;;5.67;2.83;;;21.00;99.90;;;;;;4395818;32;20424;-62
2021/07/01 05:34:47;;;;;;;4.13;2.73;;;21.10;99.90;;;;;;4407998;32;20519;-62
2021/07/01 05:37:14;;;;;;;6.93;2.77;;;21.10;99.90;;;;;;4406615;32;20166;-63
2021/07/01 05:39:42;;;;;;;4.83;3.20;;;21.20;99.90;;;;;;4407975;32;20558;-63
2021/07/01 05:42:09;;;;;;;4.23;2.50;;;21.20;99.90;;;;;;4406383;32;20159;-63
2021/07/01 05:44:36;;;;;;;4.47;2.70;;;21.20;99.90;;;;;;4407795;32;20438;-63
2021/07/01 05:47:04;;;;;;;4.60;2.87;;;21.40;99.90;;;;;;4407688;32;20151;-63
2021/07/01 05:49:31;;;;;;;5.00;2.70;;;21.40;99.90;;;;;;4407749;32;20481;-63
2021/07/01 05:52:02;;;;;;;5.33;2.80;;;21.30;99.90;;;;;;4408747;32;20424;-63
2021/07/01 05:56:55;;;;;;;4.97;2.90;;;21.30;99.90;;;;;;4408791;32;20477;-62
2021/07/01 05:59:22;;;;;;;3.50;2.90;;;21.20;99.90;;;;;;4409609;32;20171;-64
2021/07/01 06:01:50;;;;;;;5.10;2.60;;;21.20;99.90;;;;;;4409648;32;20143;-63
2021/07/01 06:04:17;;;;;;;7.73;3.00;;;21.40;99.90;;;;;;4409482;32;20147;-63
2021/07/01 06:06:49;;;;;;;4.73;2.90;;;21.40;99.90;;;;;;4409517;32;20148;-63
2021/07/01 06:09:20;;;;;;;5.73;2.70;;;21.50;99.90;;;;;;4409670;32;20189;-63
2021/07/01 06:11:54;;;;;;;5.77;2.90;;;21.60;99.90;;;;;;4409609;32;20212;-63
2021/07/01 06:14:23;;;;;;;4.47;3.00;;;21.70;99.90;;;;;;4409843;32;20194;-62
2021/07/01 06:16:53;;;;;;;4.57;2.90;;;21.80;99.90;;;;;;4409413;32;20173;-62
2021/07/01 06:19:21;;;;;;;4.77;2.80;;;22.00;99.90;;;;;;4408220;32;20160;-63
2021/07/01 06:21:49;;;;;;;5.83;2.87;;;22.00;99.90;;;;;;4412838;32;20163;-63
2021/07/01 06:24:17;;;;;;;5.97;3.23;;;22.20;99.90;;;;;;4412172;32;20161;-63
2021/07/01 06:26:46;;;;;;;5.40;3.23;;;22.30;99.90;;;;;;4412812;32;20458;-63
2021/07/01 06:29:14;;;;;;;5.43;2.97;;;22.30;99.90;;;;;;4412700;32;20152;-63
2021/07/01 06:31:41;;;;;;;4.33;3.20;;;22.40;99.90;;;;;;4412572;32;20208;-63
2021/07/01 06:34:08;;;;;;;4.73;3.73;;;22.40;99.90;;;;;;4412653;32;20139;-63
2021/07/01 06:36:40;;;;;;;5.73;3.70;;;22.40;99.90;;;;;;4412556;32;20147;-63
2021/07/01 06:39:07;;;;;;;4.53;3.40;;;21.90;99.90;;;;;;4412477;32;20179;-63
2021/07/01 06:41:37;;;;;;;10.47;3.90;;;22.00;99.90;;;;;;4412404;32;20192;-63
2021/07/01 06:44:07;;;;;;;4.90;3.73;;;21.90;99.90;;;;;;4412687;32;20143;-63
2021/07/01 06:46:35;;;;;;;4.77;3.60;;;21.80;99.90;;;;;;4412608;32;20131;-63
2021/07/01 06:49:02;;;;;;;5.97;3.63;;;21.70;99.90;;;;;;4412330;32;20182;-64
2021/07/01 06:51:40;;;;;;;6.60;3.60;;;21.80;99.90;;;;;;4412355;32;20147;-63
2021/07/01 06:54:13;;;;;;;4.10;3.60;;;21.70;99.90;;;;;;4412258;32;20247;-63
2021/07/01 06:56:40;;;;;;;5.33;3.60;;;21.70;99.90;;;;;;4412670;32;20166;-63
2021/07/01 06:59:11;;;;;;;3.63;3.13;;;21.70;99.90;;;;;;4412183;32;20178;-63
2021/07/01 07:01:38;;;;;;;4.97;3.20;;;21.70;99.90;;;;;;4412038;32;20178;-63
2021/07/01 07:04:18;;;;;;;5.87;3.57;;;21.80;99.90;;;;;;4412190;32;20151;-63
2021/07/01 07:06:46;;;;;;;6.70;4.20;;;21.60;99.90;;;;;;4411715;32;20469;-63
2021/07/01 07:09:14;;;;;;;7.93;3.90;;;21.50;99.90;;;;;;4412024;32;20523;-63
2021/07/01 07:11:42;;;;;;;4.60;3.50;;;21.40;99.90;;;;;;4412055;32;20399;-63
2021/07/01 07:14:09;;;;;;;6.43;3.50;;;21.10;99.90;;;;;;4411945;32;20186;-63
2021/07/01 07:16:41;;;;;;;5.90;3.80;;;21.30;99.90;;;;;;4412030;32;20211;-63
2021/07/01 07:19:09;;;;;;;7.97;4.20;;;21.50;99.90;;;;;;4410138;32;20536;-63
2021/07/01 07:21:45;;;;;;;5.20;3.90;;;21.50;99.90;;;;;;4411054;32;20166;-63
2021/07/01 07:24:16;;;;;;;6.33;3.50;;;21.60;99.90;;;;;;4410483;32;20147;-64
2021/07/01 07:26:50;;;;;;;6.67;3.20;;;21.50;99.90;;;;;;4410551;32;20345;-64
2021/07/01 07:29:35;;;;;;;4.70;3.50;;;21.80;99.90;;;;;;4411856;32;20197;-62
2021/07/01 07:32:04;;;;;;;6.33;3.57;;;21.80;99.90;;;;;;4410732;32;20147;-64
2021/07/01 07:34:33;;;;;;;4.83;3.47;;;22.00;99.90;;;;;;4411655;32;20185;-64
2021/07/01 07:37:01;;;;;;;4.10;3.07;;;22.00;99.90;;;;;;4411479;32;20147;-64
2021/07/01 07:39:29;;;;;;;5.03;3.10;;;22.00;99.90;;;;;;4409956;32;20218;-64
2021/07/01 07:41:57;;;;;;;3.43;2.67;;;21.90;99.90;;;;;;4411225;32;20192;-62
2021/07/01 07:44:24;;;;;;;6.00;3.27;;;22.00;99.90;;;;;;4409358;32;20167;-63
2021/07/01 07:46:51;;;;;;;6.40;3.40;;;22.20;99.90;;;;;;4411515;32;20143;-63
2021/07/01 07:49:19;;;;;;;4.77;3.30;;;22.30;99.90;;;;;;4411291;32;20147;-63
2021/07/01 07:51:51;;;;;;;4.63;3.50;;;22.50;99.90;;;;;;4411293;32;20200;-64
2021/07/01 07:54:24;;;;;;;4.90;3.40;;;22.10;99.90;;;;;;4410290;32;20198;-62
2021/07/01 07:56:56;;;;;;;5.77;3.10;;;22.10;99.90;;;;;;4410283;32;20170;-63
2021/07/01 07:59:28;;;;;;;6.87;3.50;;;22.10;99.90;;;;;;4411434;32;20469;-63
2021/07/01 08:01:58;;;;;;;7.03;3.77;;;22.20;99.90;;;;;;4411202;32;20165;-62
2021/07/01 08:04:27;;;;;;;7.47;3.87;;;22.40;99.90;;;;;;4411210;32;20195;-63
2021/07/01 08:06:55;;;;;;;6.27;3.83;;;22.40;99.90;;;;;;4411577;32;20518;-63
2021/07/01 08:09:27;;;;;;;5.67;4.10;;;22.80;99.90;;;;;;4410472;32;20193;-63
2021/07/01 08:11:54;;;;;;;5.57;4.20;;;22.90;99.90;;;;;;4411093;32;20165;-62
2021/07/01 08:14:23;;;;;;;5.00;3.60;;;23.10;99.90;;;;;;4410958;32;20185;-63
2021/07/01 08:16:51;;;;;;;6.93;4.60;;;23.20;99.90;;;;;;4410919;32;20154;-62
2021/07/01 08:19:18;;;;;;;6.10;4.30;;;22.90;99.90;;;;;;4409589;32;20199;-62
2021/07/01 08:21:48;;;;;;;6.30;4.43;;;22.80;99.90;;;;;;4408981;32;20162;-63
2021/07/01 08:24:14;;;;;;;4.10;3.70;;;22.60;99.90;;;;;;4410916;32;20181;-63
2021/07/01 08:26:43;;;;;;;7.87;3.57;;;22.40;99.90;;;;;;4410976;32;20470;-63
2021/07/01 08:29:10;;;;;;;8.83;3.40;;;22.80;99.90;;;;;;4410976;32;20163;-63
2021/07/01 08:31:46;;;;;;;5.13;3.50;;;23.00;99.90;;;;;;4410719;32;20218;-63
2021/07/01 08:34:15;;;;;;;4.85;3.62;;;23.20;99.90;;;;;;4410572;32;20429;-63
2021/07/01 08:36:45;;;;;;;3.70;3.30;;;23.50;99.90;;;;;;4410792;32;20464;-63
2021/07/01 08:39:12;;;;;;;5.82;2.95;;;23.60;99.90;;;;;;4410768;32;20178;-64
2021/07/01 08:41:44;;;;;;;8.30;3.10;;;23.90;99.90;;;;;;4410901;32;20171;-64
2021/07/01 08:44:22;;;;;;;4.45;3.28;;;23.90;99.90;;;;;;4410695;32;20210;-63
2021/07/01 08:46:50;;;;;;;7.50;2.85;;;23.90;99.90;;;;;;4411209;32;20142;-63
2021/07/01 08:49:49;;;;;;;3.43;3.00;;;24.10;99.90;;;;;;4409268;32;20290;-63
2021/07/01 08:52:43;;;;;;;4.95;2.92;;;24.40;99.90;;;;;;4410242;32;20434;-63
2021/07/01 08:55:30;;;;;;;4.03;2.72;;;24.60;99.90;;;;;;4410815;32;20165;-63
2021/07/01 08:57:59;;;;;;;4.62;2.70;;;25.00;99.90;;;;;;4409356;32;20140;-65
2021/07/01 09:00:28;;;;;;;4.65;2.60;;;25.40;99.90;;;;;;4409417;32;20364;-64
2021/07/01 09:03:05;;;;;;;3.42;2.65;;;26.10;99.90;;;;;;4409060;32;20207;-63
2021/07/01 09:05:33;;;;;;;3.87;2.22;;;26.40;97.30;;;;;;4410160;32;20181;-63
2021/07/01 09:08:09;;;;;;;3.78;2.55;;;26.60;96.50;;;;;;4410525;32;20204;-63
2021/07/01 09:10:36;;;;;;;4.87;2.72;;;26.70;96.20;;;;;;4408865;32;20147;-64
2021/07/01 09:13:08;;;;;;;7.45;2.58;;;26.70;97.10;;;;;;4410600;32;20390;-63
2021/07/01 09:15:36;;;;;;;3.55;2.35;;;26.90;95.80;;;;;;4409565;32;20216;-63
2021/07/01 09:18:04;;;;;;;4.18;2.40;;;26.60;93.00;;;;;;4408791;32;20155;-64
2021/07/01 09:20:39;;;;;;;3.97;2.22;;;26.70;93.10;;;;;;4409610;32;20429;-63
2021/07/01 09:23:08;;;;;;;4.43;2.30;;;26.60;92.40;;;;;;4410154;32;20154;-63
2021/07/01 09:25:36;;;;;;;2.55;1.95;;;26.60;91.90;;;;;;4409809;32;20139;-63
2021/07/01 09:28:04;;;;;;;4.25;2.10;;;26.90;91.80;;;;;;4409420;32;20161;-62
2021/07/01 17:46:14;;;;;;;5.47;2.50;;;23.50;92.10;;;;;;5264897;27;20210;-64
2021/07/01 17:48:41;;;;;;;3.20;2.50;;;23.40;92.00;;;;;;5266213;27;20158;-64
2021/07/01 17:51:08;;;;;;;3.33;2.30;;;23.50;92.10;;;;;;5266321;27;20237;-64
2021/07/01 17:53:35;;;;;;;2.50;2.30;;;23.50;92.10;;;;;;5266297;27;20149;-64
2021/07/01 17:56:02;;;;;;;2.85;2.53;;;23.60;92.40;;;;;;5266115;27;20114;-63
2021/07/01 17:58:29;;;;;;;3.70;2.53;;;23.40;92.10;;;;;;5266568;27;20420;-63
2021/07/01 18:00:56;;;;;;;2.78;2.58;;;23.50;92.60;;;;;;5264267;27;20141;-63
2021/07/01 18:03:23;;;;;;;4.70;2.60;;;23.40;92.00;;;;;;5266508;27;20150;-63
2021/07/01 18:05:50;;;;;;;5.60;2.70;;;23.40;92.10;;;;;;5266525;27;20123;-63
2021/07/01 18:08:17;;;;;;;5.20;2.53;;;23.40;92.20;;;;;;5266237;27;20376;-64
2021/07/01 18:10:44;;;;;;;5.10;2.50;;;23.30;92.60;;;;;;5262531;27;20494;-64
2021/07/01 18:13:10;;;;;;;5.65;2.30;;;23.30;92.00;;;;;;5262927;27;20126;-63
2021/07/01 18:15:37;;;;;;;3.03;2.50;;;23.20;92.20;;;;;;5265000;27;20127;-64
2021/07/01 18:18:04;;;;;;;3.10;2.40;;;23.20;92.20;;;;;;5263426;27;20146;-64
2021/07/01 18:20:31;;;;;;;3.12;2.30;;;23.10;92.50;;;;;;5265112;27;20133;-63
2021/07/01 18:22:58;;;;;;;2.67;2.33;;;23.10;93.00;;;;;;5262671;27;20126;-63
2021/07/01 18:25:25;;;;;;;2.60;2.20;;;23.10;92.80;;;;;;5265116;27;20432;-63
2021/07/01 18:27:52;;;;;;;4.63;2.50;;;23.10;92.60;;;;;;5268090;27;20131;-63
2021/07/01 18:30:19;;;;;;;5.65;2.80;;;23.10;92.60;;;;;;5267479;27;20356;-63
2021/07/01 18:32:46;;;;;;;5.03;2.20;;;23.10;92.50;;;;;;5265243;27;20428;-63
2021/07/01 18:35:13;;;;;;;7.03;2.40;;;23.00;92.40;;;;;;5265138;27;20158;-63
2021/07/01 18:37:40;;;;;;;3.95;1.90;;;23.00;92.40;;;;;;5267256;27;20201;-63
2021/07/01 18:40:07;;;;;;;4.77;2.00;;;22.90;92.30;;;;;;5267726;27;20150;-63
2021/07/01 18:42:34;;;;;;;4.40;3.00;;;22.90;92.10;;;;;;5267113;27;20137;-63
2021/07/01 18:45:05;;;;;;;5.43;3.40;;;22.90;92.30;;;;;;5263592;27;20153;-62
2021/07/01 18:47:52;;;;;;;3.30;2.07;;;22.90;92.30;;;;;;5267132;27;20154;-62
2021/07/01 18:50:19;;;;;;;2.67;2.20;;;22.90;92.80;;;;;;5266758;27;20159;-62
2021/07/01 18:52:58;;;;;;;3.30;2.13;;;22.90;92.40;;;;;;5264663;27;20393;-63
2021/07/01 18:55:27;;;;;;;5.10;2.40;;;22.90;92.50;;;;;;5266919;27;20407;-63
2021/07/01 18:58:12;;;;;;;4.30;2.37;;;22.90;92.80;;;;;;5266232;27;20127;-62
2021/07/01 19:00:40;;;;;;;3.17;2.33;;;22.90;92.60;;;;;;5266905;27;20280;-62
2021/07/01 19:03:28;;;;;;;3.95;2.40;;;22.90;92.80;;;;;;5264443;27;20144;-63
2021/07/01 19:05:58;;;;;;;4.07;2.40;;;22.90;93.00;;;;;;5266297;27;20133;-62
2021/07/01 19:08:37;;;;;;;3.03;1.90;;;22.90;92.80;;;;;;5266385;27;20172;-62
2021/07/01 19:17:37;;;;;;;3.10;2.10;;;22.90;92.90;;;;;;5264485;27;20114;-63
2021/07/01 19:20:22;;;;;;;3.80;2.20;;;22.90;92.90;;;;;;5266681;27;20159;-63
2021/07/01 19:23:27;;;;;;;3.03;2.37;;;22.90;93.10;;;;;;5158218;27;20426;-62
2021/07/01 19:26:18;;;;;;;4.13;2.10;;;22.90;92.80;;;;;;5157623;27;20139;-63
2021/07/01 19:28:50;;;;;;;3.20;2.03;;;22.80;92.90;;;;;;5157926;27;20124;-62
2021/07/01 19:31:20;;;;;;;3.87;2.33;;;22.80;93.10;;;;;;5158128;27;20211;-63
2021/07/01 19:33:48;;;;;;;3.20;2.13;;;22.80;93.10;;;;;;5157498;27;20167;-63
2021/07/01 19:36:15;;;;;;;2.50;2.30;;;22.90;93.40;;;;;;5155865;27;20159;-62
2021/07/01 19:38:48;;;;;;;4.47;2.30;;;22.90;93.50;;;;;;5158872;27;20580;-62
2021/07/01 19:41:17;;;;;;;2.90;2.00;;;22.90;93.40;;;;;;5157520;27;20172;-63
2021/07/01 19:43:45;;;;;;;3.67;2.20;;;22.90;93.50;;;;;;5158542;27;20178;-62
2021/07/01 19:46:12;;;;;;;3.33;2.20;;;22.80;93.70;;;;;;5154512;27;20140;-62
2021/07/01 19:48:41;;;;;;;3.27;2.30;;;22.80;93.70;;;;;;5153310;27;20337;-62
2021/07/01 19:51:08;;;;;;;2.70;2.00;;;22.80;93.90;;;;;;5153973;27;20159;-62
2021/07/01 19:53:35;;;;;;;3.73;2.10;;;22.70;93.60;;;;;;5190733;27;20554;-63
2021/07/01 19:56:04;;;;;;;4.37;2.22;;;22.70;93.80;;;;;;5260843;27;20126;-63
2021/07/01 19:58:36;;;;;;;3.87;2.30;;;22.60;93.90;;;;;;5262601;27;20122;-63
2021/07/01 20:01:04;;;;;;;4.17;2.30;;;22.60;94.00;;;;;;5263324;27;20134;-64
2021/07/01 20:03:32;;;;;;;5.03;2.10;;;22.60;94.10;;;;;;5265164;27;20114;-63
2021/07/01 20:05:59;;;;;;;4.80;2.45;;;22.50;94.20;;;;;;5263464;27;20158;-65
2021/07/01 20:08:26;;;;;;;3.67;2.50;;;22.50;94.40;;;;;;5265036;27;20127;-63
2021/07/01 20:10:53;;;;;;;3.57;2.37;;;22.50;94.60;;;;;;5265772;27;20181;-63
2021/07/01 20:13:21;;;;;;;3.03;2.00;;;22.50;94.70;;;;;;5267074;27;20505;-63
2021/07/01 20:15:48;;;;;;;3.97;2.80;;;22.50;94.90;;;;;;5267052;27;20403;-63
2021/07/01 20:18:15;;;;;;;3.83;2.40;;;22.40;94.90;;;;;;5266362;27;20130;-63
2021/07/01 20:20:42;;;;;;;4.33;2.37;;;22.50;95.10;;;;;;5264744;27;20383;-63
2021/07/01 20:23:09;;;;;;;3.50;2.40;;;22.50;95.10;;;;;;5265410;27;20152;-63
2021/07/01 20:25:36;;;;;;;4.17;2.43;;;22.50;95.10;;;;;;5266734;27;20148;-63
2021/07/01 20:28:03;;;;;;;4.10;2.30;;;22.50;95.20;;;;;;5266774;27;20147;-63
2021/07/01 20:30:30;;;;;;;4.37;2.60;;;22.40;95.20;;;;;;5265702;27;20107;-62
2021/07/01 20:32:58;;;;;;;5.93;2.37;;;22.40;95.50;;;;;;5266649;27;20118;-63
2021/07/01 20:35:25;;;;;;;4.30;2.33;;;22.30;95.80;;;;;;5266529;27;20127;-63
2021/07/01 20:37:52;;;;;;;3.70;2.33;;;22.30;95.80;;;;;;5265896;27;20338;-62
2021/07/01 20:40:19;;;;;;;4.20;2.30;;;22.30;96.00;;;;;;5265150;27;20114;-63
2021/07/01 20:42:46;;;;;;;3.87;2.33;;;22.40;95.90;;;;;;5266753;27;20110;-63
2021/07/01 20:45:13;;;;;;;5.43;2.40;;;22.40;96.30;;;;;;5265182;27;20165;-63
2021/07/01 20:47:40;;;;;;;5.30;2.67;;;22.40;95.90;;;;;;5266738;27;20156;-63
2021/07/01 20:50:09;;;;;;;7.00;2.60;;;22.30;96.10;;;;;;5266586;27;20115;-63
2021/07/01 20:52:42;;;;;;;6.97;2.77;;;22.30;96.10;;;;;;5266447;27;20444;-62
2021/07/01 20:55:19;;;;;;;4.53;2.67;;;22.30;96.40;;;;;;5266758;27;20106;-63
2021/07/01 20:57:47;;;;;;;4.67;2.47;;;22.30;96.30;;;;;;5264474;27;20115;-63
2021/07/01 21:00:20;;;;;;;3.60;2.57;;;22.30;96.40;;;;;;5266848;27;20363;-62
2021/07/01 21:02:48;;;;;;;6.43;2.90;;;22.30;96.40;;;;;;5264510;27;20167;-62
2021/07/01 21:05:15;;;;;;;4.73;2.60;;;22.10;96.70;;;;;;5266686;27;20115;-63
2021/07/01 21:07:53;;;;;;;3.97;2.60;;;22.10;97.00;;;;;;5266671;27;20150;-62
2021/07/01 21:10:22;;;;;;;4.77;2.30;;;22.10;96.90;;;;;;5266173;27;20126;-63
2021/07/01 21:12:58;;;;;;;5.53;2.43;;;22.20;97.00;;;;;;5266483;27;20126;-63
2021/07/01 21:15:28;;;;;;;4.43;2.60;;;22.20;96.90;;;;;;5265849;27;20163;-63
2021/07/01 21:17:56;;;;;;;3.70;2.47;;;22.10;97.20;;;;;;5266512;27;20512;-63
2021/07/01 21:20:26;;;;;;;5.20;2.63;;;22.10;97.30;;;;;;5266502;27;20197;-63